Weather at Chennai International Airport

Public forecast

Using degrees Celsius for public forecast. Weather courtesy of forecast.io.

Current aviation weather report (METAR) for Chennai International Airport

Report is more than 6 hours old.

2022/11/14 15:30 (retrieved 2 years ago)

VOMM 141530Z VRB02KT 2500 -TSRA SCT018 FEW025CB BKN080 25/24 Q1014 NOSIG

Aviation forecast (TAF) for Chennai International Airport

Forecast is more than 12 hours old.

2023/02/22 18:00 (retrieved 1 year ago)

TAF VOMM 221700Z 2218/2324 VRB02KT 5000 BR FEW020 BECMG 2221/2222 3000 BR BECMG 2300/2301 1500 BR TEMPO 2300/2303 1000 MIFG BECMG 2303/2304 29005KT 3000 BR BECMG 2306/2307 11010KT 6000 BECMG 2318/2319 VRB02KT 5000 BR BECMG 2321/2322 3000 BR